createdAt,value
2023-03-04T00:02:09.124Z,101711.50
2023-03-04T00:04:42.030Z,101708.50
2023-03-04T00:07:17.591Z,101715.41
2023-03-04T00:09:48.663Z,101717.38
2023-03-04T00:12:20.087Z,101722.84
2023-03-04T00:14:50.378Z,101718.41
2023-03-04T00:17:20.946Z,101723.03
2023-03-04T00:19:51.895Z,101721.28
2023-03-04T00:22:22.612Z,101725.91
2023-03-04T00:24:53.038Z,101734.38
2023-03-04T00:27:24.087Z,101724.69
2023-03-04T00:29:54.925Z,101716.16
2023-03-04T00:32:25.446Z,101724.63
2023-03-04T00:34:55.903Z,101730.84
2023-03-04T00:37:30.021Z,101731.22
2023-03-04T00:40:01.159Z,101728.78
2023-03-04T00:42:32.071Z,101734.69
2023-03-04T00:45:03.163Z,101729.56
2023-03-04T00:47:33.784Z,101718.47
2023-03-04T00:50:04.869Z,101716.97
2023-03-04T00:52:35.956Z,101720.09
2023-03-04T00:55:07.931Z,101726.69
2023-03-04T00:57:38.538Z,101723.53
2023-03-04T01:00:10.697Z,101732.69
2023-03-04T01:02:41.348Z,101727.50
2023-03-04T01:05:15.274Z,101724.47
2023-03-04T01:07:46.519Z,101727.41
2023-03-04T01:10:17.394Z,101720.69
2023-03-04T01:12:48.180Z,101725.75
2023-03-04T01:15:18.510Z,101719.06
2023-03-04T01:17:49.309Z,101721.13
2023-03-04T01:20:19.906Z,101722.13
2023-03-04T01:22:50.543Z,101716.94
2023-03-04T01:25:21.374Z,101710.91
2023-03-04T01:27:51.774Z,101722.88
2023-03-04T01:30:22.995Z,101716.66
2023-03-04T01:32:54.246Z,101706.94
2023-03-04T01:35:24.607Z,101712.69
2023-03-04T01:37:55.904Z,101718.91
2023-03-04T01:40:26.223Z,101711.16
2023-03-04T01:42:58.104Z,101707.78
2023-03-04T01:45:30.885Z,101712.53
2023-03-04T01:48:01.494Z,101702.28
2023-03-04T01:50:34.945Z,101693.31
2023-03-04T01:53:06.361Z,101701.75
2023-03-04T01:55:37.762Z,101701.81
2023-03-04T01:58:12.121Z,101695.09
2023-03-04T02:00:43.300Z,101687.03
2023-03-04T02:03:17.969Z,101697.34
2023-03-04T02:05:51.764Z,101694.13
2023-03-04T02:08:24.266Z,101688.38
2023-03-04T02:10:56.167Z,101697.50
2023-03-04T02:13:26.727Z,101691.13
2023-03-04T02:15:58.351Z,101688.09
2023-03-04T02:18:29.507Z,101681.69
2023-03-04T02:21:07.787Z,101681.69
2023-03-04T02:24:01.664Z,101678.31
2023-03-04T02:26:33.287Z,101676.78
2023-03-04T02:29:04.755Z,101673.25
2023-03-04T02:31:37.127Z,101661.25
2023-03-04T02:34:21.804Z,101663.13
2023-03-04T02:36:55.217Z,101657.19
2023-03-04T02:39:37.739Z,101643.88
2023-03-04T02:42:09.463Z,101634.59
2023-03-04T02:44:47.454Z,101628.03
2023-03-04T02:47:19.903Z,101626.00
2023-03-04T02:49:52.101Z,101628.72
2023-03-04T02:52:27.627Z,101621.63
2023-03-04T02:54:58.854Z,101620.94
2023-03-04T02:57:29.566Z,101603.75
2023-03-04T03:00:00.487Z,101605.09
2023-03-04T03:02:31.809Z,101596.31
2023-03-04T03:05:02.465Z,101598.34
2023-03-04T03:07:34.218Z,101597.47
2023-03-04T03:10:05.339Z,101601.88
2023-03-04T03:12:36.063Z,101588.53
2023-03-04T03:15:08.547Z,101584.16
2023-03-04T03:17:39.666Z,101577.56
2023-03-04T03:20:12.261Z,101565.22
2023-03-04T03:22:43.530Z,101556.63
2023-03-04T03:25:15.958Z,101552.09
2023-03-04T03:27:46.579Z,101552.38
2023-03-04T03:30:18.255Z,101537.47
2023-03-04T03:32:48.611Z,101539.47
2023-03-04T03:35:19.295Z,101530.00
2023-03-04T03:37:50.589Z,101532.88
2023-03-04T03:40:32.510Z,101535.38
2023-03-04T03:43:04.016Z,101529.00
2023-03-04T03:45:35.049Z,101526.66
2023-03-04T03:48:06.462Z,101530.34
2023-03-04T03:50:37.134Z,101524.09
2023-03-04T03:53:07.823Z,101533.53
2023-03-04T03:55:38.351Z,101521.53
2023-03-04T03:58:09.731Z,101516.63
2023-03-04T04:00:41.038Z,101520.41
2023-03-04T04:03:14.544Z,101518.06
2023-03-04T04:05:45.369Z,101506.88
2023-03-04T04:08:21.054Z,101503.53
2023-03-04T04:10:52.168Z,101510.31
2023-03-04T04:13:22.820Z,101503.56
2023-03-04T04:15:54.314Z,101502.91
2023-03-04T04:18:26.811Z,101499.69
2023-03-04T04:20:57.811Z,101493.94
2023-03-04T04:23:29.189Z,101486.34
2023-03-04T04:26:00.388Z,101478.88
2023-03-04T04:28:30.879Z,101476.44
2023-03-04T04:31:01.580Z,101469.28
2023-03-04T04:33:31.857Z,101461.13
2023-03-04T04:36:02.871Z,101454.59
2023-03-04T04:38:33.535Z,101449.94
2023-03-04T04:41:04.456Z,101452.25
2023-03-04T04:43:35.171Z,101441.06
2023-03-04T04:46:06.201Z,101437.25
2023-03-04T04:48:37.076Z,101438.97
2023-03-04T04:51:07.776Z,101430.69
2023-03-04T04:53:38.622Z,101426.22
2023-03-04T04:56:22.434Z,101426.81
2023-03-04T04:58:53.736Z,101418.94
2023-03-04T05:01:25.305Z,101413.81
2023-03-04T05:03:56.411Z,101422.84
2023-03-04T05:06:27.664Z,101402.34
2023-03-04T05:08:58.870Z,101391.03
2023-03-04T05:11:30.425Z,101396.50
2023-03-04T05:14:01.802Z,101403.50
2023-03-04T05:16:32.575Z,101393.44
2023-03-04T05:19:03.752Z,101391.53
2023-03-04T05:21:34.441Z,101386.78
2023-03-04T05:24:05.201Z,101382.22
2023-03-04T05:26:36.252Z,101381.34
2023-03-04T05:29:06.881Z,101378.66
2023-03-04T05:31:37.222Z,101370.56
2023-03-04T05:34:09.828Z,101377.63
2023-03-04T05:36:40.206Z,101368.06
2023-03-04T05:39:11.669Z,101364.78
2023-03-04T05:41:42.238Z,101356.66
2023-03-04T05:44:12.716Z,101347.69
2023-03-04T05:46:43.885Z,101346.53
2023-03-04T05:49:14.373Z,101341.41
2023-03-04T05:51:46.099Z,101326.66
2023-03-04T05:54:17.246Z,101331.69
2023-03-04T05:56:47.862Z,101337.19
2023-03-04T05:59:21.493Z,101333.06
2023-03-04T06:01:52.261Z,101314.78
2023-03-04T06:04:22.884Z,101322.78
2023-03-04T06:06:54.533Z,101315.03
2023-03-04T06:09:25.497Z,101318.63
2023-03-04T06:11:56.905Z,101309.25
2023-03-04T06:14:27.639Z,101314.03
2023-03-04T06:16:58.489Z,101315.66
2023-03-04T06:19:28.793Z,101300.59
2023-03-04T06:21:59.361Z,101306.16
2023-03-04T06:24:30.654Z,101305.78
2023-03-04T06:27:01.286Z,101300.72
2023-03-04T06:29:32.212Z,101293.75
2023-03-04T06:32:02.942Z,101292.25
2023-03-04T06:34:34.670Z,101292.84
2023-03-04T06:37:05.368Z,101295.31
2023-03-04T06:39:36.633Z,101289.25
2023-03-04T06:42:07.250Z,101289.06
2023-03-04T06:44:38.424Z,101281.59
2023-03-04T06:47:09.957Z,101281.25
2023-03-04T06:49:40.882Z,101280.78
2023-03-04T06:52:13.833Z,101274.63
2023-03-04T06:54:45.067Z,101270.22
2023-03-04T06:57:15.932Z,101273.59
2023-03-04T06:59:49.083Z,101268.16
2023-03-04T07:02:19.430Z,101264.00
2023-03-04T07:04:50.896Z,101259.41
2023-03-04T07:07:21.389Z,101259.00
2023-03-04T07:09:52.241Z,101262.38
2023-03-04T07:12:22.872Z,101250.72
2023-03-04T07:14:54.070Z,101253.59
2023-03-04T07:17:24.522Z,101251.16
2023-03-04T07:19:55.109Z,101250.78
2023-03-04T07:22:25.924Z,101247.41
2023-03-04T07:24:56.803Z,101246.91
2023-03-04T07:27:27.881Z,101237.97
2023-03-04T07:29:59.025Z,101248.34
2023-03-04T07:32:29.810Z,101240.97
2023-03-04T07:35:00.626Z,101239.56
2023-03-04T07:37:31.300Z,101238.63
2023-03-04T07:40:01.888Z,101241.81
2023-03-04T07:42:32.424Z,101242.00
2023-03-04T07:45:09.694Z,101245.28
2023-03-04T07:47:42.360Z,101241.09
2023-03-04T07:50:14.140Z,101241.09
2023-03-04T07:52:49.693Z,101243.63
2023-03-04T07:55:31.735Z,101248.19
2023-03-04T07:58:02.197Z,101249.81
2023-03-04T08:00:33.262Z,101249.34
2023-03-04T08:03:03.610Z,101252.69
2023-03-04T08:05:35.834Z,101249.81
2023-03-04T08:08:07.148Z,101250.38
2023-03-04T08:10:40.691Z,101244.50
2023-03-04T08:13:11.715Z,101252.44
2023-03-04T08:15:44.284Z,101250.09
2023-03-04T08:18:19.146Z,101251.78
2023-03-04T08:20:51.247Z,101250.09
2023-03-04T08:23:22.230Z,101255.91
2023-03-04T08:25:53.369Z,101255.91
2023-03-04T08:28:24.041Z,101259.00
2023-03-04T08:30:57.674Z,101258.34
2023-03-04T08:33:28.291Z,101262.47
2023-03-04T08:35:59.070Z,101269.94
2023-03-04T08:38:29.943Z,101269.50
2023-03-04T08:41:09.665Z,101269.66
2023-03-04T08:43:40.776Z,101269.66
2023-03-04T08:46:11.525Z,101269.03
2023-03-04T08:48:42.208Z,101273.78
2023-03-04T08:51:15.184Z,101268.09
2023-03-04T08:53:46.524Z,101268.94
2023-03-04T08:56:17.985Z,101273.13
2023-03-04T08:58:48.650Z,101274.00
2023-03-04T09:01:19.451Z,101279.31
2023-03-04T09:03:50.499Z,101282.28
2023-03-04T09:06:21.389Z,101293.50
2023-03-04T09:08:52.253Z,101284.34
2023-03-04T09:11:23.064Z,101294.25
2023-03-04T09:13:54.355Z,101297.31
2023-03-04T09:16:35.709Z,101297.88
2023-03-04T09:19:07.027Z,101302.84
2023-03-04T09:21:37.657Z,101305.25
2023-03-04T09:24:11.192Z,101313.09
2023-03-04T09:26:42.414Z,101312.16
2023-03-04T09:29:13.844Z,101315.69
2023-03-04T09:31:44.672Z,101313.84
2023-03-04T09:34:15.492Z,101315.53
2023-03-04T09:36:49.105Z,101312.53
2023-03-04T09:39:20.410Z,101324.38
2023-03-04T09:41:59.066Z,101332.59
2023-03-04T09:44:33.445Z,101338.00
2023-03-04T09:47:22.966Z,101334.91
2023-03-04T09:49:58.520Z,101335.13
2023-03-04T09:53:04.092Z,101342.22
2023-03-04T09:55:40.494Z,101344.25
2023-03-04T09:58:30.355Z,101347.81
2023-03-04T10:01:19.362Z,101354.59
2023-03-04T10:04:18.522Z,101350.75
2023-03-04T10:06:55.371Z,101353.81
2023-03-04T10:10:06.360Z,101360.25
2023-03-04T10:12:41.506Z,101358.09
2023-03-04T10:15:33.336Z,101358.28
2023-03-04T10:18:38.082Z,101367.09
2023-03-04T10:21:38.400Z,101363.09
2023-03-04T10:24:19.175Z,101369.50
2023-03-04T10:27:12.076Z,101368.69
2023-03-04T10:29:42.978Z,101372.44
2023-03-04T10:32:17.443Z,101368.88
2023-03-04T10:34:49.136Z,101373.63
2023-03-04T10:37:19.833Z,101368.56
2023-03-04T10:39:51.957Z,101374.31
2023-03-04T10:42:31.027Z,101386.16
2023-03-04T10:45:02.417Z,101386.34
2023-03-04T10:47:35.728Z,101384.16
2023-03-04T10:50:10.314Z,101392.94
2023-03-04T10:52:43.292Z,101393.94
2023-03-04T10:55:19.187Z,101391.25
2023-03-04T10:57:57.956Z,101391.25
2023-03-04T11:00:36.248Z,101389.94
2023-03-04T11:03:34.525Z,101403.06
2023-03-04T11:06:07.227Z,101399.06
2023-03-04T11:08:37.939Z,101405.19
2023-03-04T11:11:40.135Z,101406.50
2023-03-04T11:14:50.119Z,101425.59
2023-03-04T11:17:29.729Z,101418.03
2023-03-04T11:20:11.726Z,101428.00
2023-03-04T11:22:47.995Z,101429.03
2023-03-04T11:25:44.349Z,101430.34
2023-03-04T11:28:24.330Z,101441.03
2023-03-04T11:31:01.575Z,101448.94
2023-03-04T11:33:52.846Z,101444.41
2023-03-04T11:36:37.013Z,101438.50
2023-03-04T11:39:18.794Z,101447.97
2023-03-04T11:41:59.441Z,101457.94
2023-03-04T11:44:31.804Z,101453.50
2023-03-04T11:47:09.582Z,101452.84
2023-03-04T11:50:16.463Z,101455.53
2023-03-04T11:53:02.923Z,101460.28
2023-03-04T11:55:41.003Z,101464.00
2023-03-04T11:58:17.850Z,101460.63
2023-03-04T12:01:06.435Z,101464.50
2023-03-04T12:04:05.716Z,101474.13
2023-03-04T12:07:04.414Z,101469.56
2023-03-04T12:10:11.929Z,101478.16
2023-03-04T12:12:42.980Z,101475.81
2023-03-04T12:15:44.985Z,101468.72
2023-03-04T12:18:40.265Z,101479.16
2023-03-04T12:21:17.021Z,101480.53
2023-03-04T12:24:15.907Z,101483.53
2023-03-04T12:26:56.208Z,101481.84
2023-03-04T12:29:41.672Z,101474.78
2023-03-04T12:32:36.848Z,101473.56
2023-03-04T12:35:25.541Z,101476.78
2023-03-04T12:38:11.649Z,101491.28
2023-03-04T12:41:20.499Z,101490.63
2023-03-04T12:44:18.242Z,101503.94
2023-03-04T12:46:53.979Z,101506.84
2023-03-04T12:49:27.122Z,101507.50
2023-03-04T12:52:11.099Z,101513.91
2023-03-04T12:54:44.975Z,101507.00
2023-03-04T12:57:24.985Z,101523.03
2023-03-04T13:00:24.353Z,101520.16
2023-03-04T13:03:30.472Z,101523.72
2023-03-04T13:06:13.832Z,101524.06
2023-03-04T13:08:53.897Z,101525.06
2023-03-04T13:11:30.818Z,101534.19
2023-03-04T13:14:16.033Z,101531.50
2023-03-04T13:16:52.257Z,101532.31
2023-03-04T13:19:44.351Z,101533.84
2023-03-04T13:22:39.931Z,101535.88
2023-03-04T13:25:45.194Z,101538.56
2023-03-04T13:28:36.718Z,101542.28
2023-03-04T13:31:21.453Z,101542.44
2023-03-04T13:33:58.063Z,101551.09
2023-03-04T13:36:37.038Z,101551.09
2023-03-04T13:39:16.623Z,101543.66
2023-03-04T13:41:50.896Z,101544.00
2023-03-04T13:44:48.278Z,101544.81
2023-03-04T13:47:23.161Z,101551.09
2023-03-04T13:50:38.129Z,101549.06
2023-03-04T13:53:50.848Z,101550.06
2023-03-04T13:56:24.567Z,101558.66
2023-03-04T13:59:10.245Z,101561.88
2023-03-04T14:01:44.580Z,101564.91
2023-03-04T14:04:23.042Z,101562.03
2023-03-04T14:07:04.996Z,101567.44
2023-03-04T14:09:36.466Z,101563.38
2023-03-04T14:12:15.737Z,101568.97
2023-03-04T14:15:00.271Z,101571.81
2023-03-04T14:17:34.326Z,101569.66
2023-03-04T14:20:26.285Z,101561.72
2023-03-04T14:22:57.160Z,101569.13
2023-03-04T14:25:36.923Z,101566.44
2023-03-04T14:28:14.281Z,101561.41
2023-03-04T14:30:46.502Z,101567.97
2023-03-04T14:33:26.145Z,101565.59
2023-03-04T14:36:02.617Z,101568.63
2023-03-04T14:38:43.395Z,101569.31
2023-03-04T14:41:23.170Z,101563.75
2023-03-04T14:44:07.200Z,101576.56
2023-03-04T14:47:04.594Z,101573.03
2023-03-04T14:49:39.011Z,101578.41
2023-03-04T14:52:31.218Z,101572.88
2023-03-04T14:55:06.889Z,101574.56
2023-03-04T14:57:37.310Z,101568.28
2023-03-04T15:00:22.899Z,101571.66
2023-03-04T15:03:01.662Z,101576.53
2023-03-04T15:05:41.351Z,101578.56
2023-03-04T15:08:24.148Z,101581.06
2023-03-04T15:11:06.527Z,101568.94
2023-03-04T15:13:46.381Z,101570.94
2023-03-04T15:16:20.015Z,101576.69
2023-03-04T15:19:25.833Z,101569.78
2023-03-04T15:22:08.612Z,101571.28
2023-03-04T15:24:38.981Z,101564.53
2023-03-04T15:27:13.658Z,101551.22
2023-03-04T15:29:45.251Z,101557.78
2023-03-04T15:32:16.345Z,101551.22
2023-03-04T15:34:47.259Z,101547.66
2023-03-04T15:37:27.351Z,101547.84
2023-03-04T15:39:59.253Z,101547.16
2023-03-04T15:42:30.084Z,101545.47
2023-03-04T15:45:01.233Z,101543.94
2023-03-04T15:47:32.046Z,101539.56
2023-03-04T15:50:02.454Z,101538.19
2023-03-04T15:52:34.555Z,101532.81
2023-03-04T15:55:05.717Z,101525.72
2023-03-04T15:57:36.030Z,101521.19
2023-03-04T16:00:11.043Z,101524.03
2023-03-04T16:02:44.226Z,101521.34
2023-03-04T16:05:16.703Z,101519.31
2023-03-04T16:07:48.425Z,101506.19
2023-03-04T16:10:28.683Z,101519.69
2023-03-04T16:12:59.406Z,101518.31
2023-03-04T16:15:31.492Z,101507.84
2023-03-04T16:18:02.378Z,101499.22
2023-03-04T16:20:33.206Z,101502.09
2023-03-04T16:23:04.396Z,101501.41
2023-03-04T16:25:35.270Z,101501.41
2023-03-04T16:28:05.834Z,101496.34
2023-03-04T16:30:36.335Z,101500.22
2023-03-04T16:33:06.958Z,101498.38
2023-03-04T16:35:39.212Z,101495.16
2023-03-04T16:38:28.251Z,101495.00
2023-03-04T16:41:00.496Z,101490.75
2023-03-04T16:43:30.885Z,101489.25
2023-03-04T16:46:01.649Z,101493.97
2023-03-04T16:48:32.109Z,101486.88
2023-03-04T16:51:05.728Z,101479.81
2023-03-04T16:53:39.331Z,101491.06
2023-03-04T16:56:15.833Z,101485.53
2023-03-04T16:58:49.965Z,101483.84
2023-03-04T17:01:33.135Z,101474.06
2023-03-04T17:04:03.939Z,101479.09
2023-03-04T17:06:37.190Z,101477.41
2023-03-04T17:09:08.490Z,101479.25
2023-03-04T17:11:42.962Z,101476.88
2023-03-04T17:14:13.420Z,101473.38
2023-03-04T17:16:44.025Z,101474.38
2023-03-04T17:19:14.517Z,101465.63
2023-03-04T17:21:45.738Z,101467.63
2023-03-04T17:24:16.214Z,101466.25
2023-03-04T17:26:46.683Z,101474.34
2023-03-04T17:29:17.368Z,101468.28
2023-03-04T17:31:47.986Z,101463.22
2023-03-04T17:34:19.860Z,101456.28
2023-03-04T17:36:50.578Z,101459.94
2023-03-04T17:39:21.833Z,101455.75
2023-03-04T17:41:53.331Z,101456.75
2023-03-04T17:44:24.149Z,101456.75
2023-03-04T17:46:54.891Z,101450.38
2023-03-04T17:49:25.989Z,101456.75
2023-03-04T17:51:57.069Z,101460.47
2023-03-04T17:54:30.322Z,101444.63
2023-03-04T17:57:00.990Z,101458.25
2023-03-04T17:59:31.839Z,101452.03
2023-03-04T18:02:02.518Z,101443.13
2023-03-04T18:04:33.414Z,101442.94
2023-03-04T18:07:04.262Z,101447.50
2023-03-04T18:09:34.792Z,101443.59
2023-03-04T18:12:05.553Z,101432.81
2023-03-04T18:14:39.055Z,101439.06
2023-03-04T18:17:09.910Z,101434.81
2023-03-04T18:19:40.280Z,101434.00
2023-03-04T18:22:11.268Z,101431.78
2023-03-04T18:24:42.225Z,101432.78
2023-03-04T18:27:12.810Z,101423.69
2023-03-04T18:29:43.702Z,101432.09
2023-03-04T18:32:14.089Z,101435.78
2023-03-04T18:34:44.749Z,101430.41
2023-03-04T18:37:16.082Z,101425.03
2023-03-04T18:39:48.524Z,101421.50
2023-03-04T18:42:21.872Z,101421.66
2023-03-04T18:44:52.727Z,101421.97
2023-03-04T18:47:23.794Z,101418.28
2023-03-04T18:49:54.432Z,101423.97
2023-03-04T18:52:25.296Z,101419.78
2023-03-04T18:54:55.540Z,101415.91
2023-03-04T18:57:25.827Z,101417.22
2023-03-04T19:00:00.984Z,101413.84
2023-03-04T19:02:41.954Z,101414.53
2023-03-04T19:05:16.901Z,101413.03
2023-03-04T19:07:47.253Z,101417.56
2023-03-04T19:10:17.721Z,101416.19
2023-03-04T19:12:48.537Z,101409.13
2023-03-04T19:15:21.083Z,101413.34
2023-03-04T19:17:52.061Z,101422.75
2023-03-04T19:20:23.452Z,101416.81
2023-03-04T19:22:54.135Z,101415.13
2023-03-04T19:25:27.844Z,101416.81
2023-03-04T19:27:58.763Z,101406.06
2023-03-04T19:30:39.162Z,101419.50
2023-03-04T19:33:11.242Z,101413.44
2023-03-04T19:35:43.363Z,101415.47
2023-03-04T19:38:14.793Z,101412.75
2023-03-04T19:40:50.651Z,101408.66
2023-03-04T19:43:21.453Z,101402.28
2023-03-04T19:45:56.888Z,101404.97
2023-03-04T19:48:27.231Z,101404.28
2023-03-04T19:50:57.683Z,101403.59
2023-03-04T19:53:28.300Z,101402.78
2023-03-04T19:55:58.821Z,101401.25
2023-03-04T19:58:29.006Z,101403.09
2023-03-04T20:00:59.721Z,101401.41
2023-03-04T20:03:31.610Z,101396.84
2023-03-04T20:06:08.742Z,101389.13
2023-03-04T20:08:39.313Z,101389.47
2023-03-04T20:11:13.963Z,101395.53
2023-03-04T20:13:45.035Z,101394.16
2023-03-04T20:16:16.035Z,101396.16
2023-03-04T20:18:47.474Z,101389.91
2023-03-04T20:21:18.226Z,101389.41
2023-03-04T20:23:49.184Z,101387.41
2023-03-04T20:26:19.793Z,101384.72
2023-03-04T20:28:54.060Z,101386.72
2023-03-04T20:31:27.555Z,101387.72
2023-03-04T20:34:02.824Z,101384.34
2023-03-04T20:36:33.165Z,101387.88
2023-03-04T20:39:10.277Z,101388.19
2023-03-04T20:41:48.560Z,101391.72
2023-03-04T20:44:19.102Z,101401.81
2023-03-04T20:46:49.462Z,101406.19
2023-03-04T20:49:24.914Z,101404.63
2023-03-04T20:52:07.327Z,101399.44
2023-03-04T20:54:39.432Z,101403.13
2023-03-04T20:57:18.126Z,101405.81
2023-03-04T20:59:48.920Z,101410.50
2023-03-04T21:02:20.719Z,101407.44
2023-03-04T21:04:51.671Z,101421.56
2023-03-04T21:07:22.048Z,101416.19
2023-03-04T21:09:52.533Z,101427.94
2023-03-04T21:12:23.151Z,101419.00
2023-03-04T21:14:54.624Z,101423.88
2023-03-04T21:17:25.679Z,101425.03
2023-03-04T21:19:56.557Z,101423.19
2023-03-04T21:22:28.123Z,101420.50
2023-03-04T21:24:58.455Z,101415.44
2023-03-04T21:27:29.521Z,101426.50
2023-03-04T21:30:03.186Z,101419.44
2023-03-04T21:32:33.834Z,101426.81
2023-03-04T21:35:06.190Z,101430.50
2023-03-04T21:37:37.149Z,101430.19
2023-03-04T21:40:08.608Z,101433.88
2023-03-04T21:42:39.612Z,101443.09
2023-03-04T21:45:12.201Z,101437.84
2023-03-04T21:47:42.752Z,101437.16
2023-03-04T21:50:13.355Z,101450.59
2023-03-04T21:52:44.041Z,101445.22
2023-03-04T21:55:15.902Z,101451.41
2023-03-04T21:57:46.256Z,101459.66
2023-03-04T22:00:17.603Z,101464.03
2023-03-04T22:02:48.161Z,101468.56
2023-03-04T22:05:19.218Z,101468.72
2023-03-04T22:07:49.726Z,101467.72
2023-03-04T22:10:30.579Z,101468.41
2023-03-04T22:13:01.674Z,101480.16
2023-03-04T22:15:33.769Z,101474.09
2023-03-04T22:18:08.368Z,101483.16
2023-03-04T22:20:41.803Z,101491.34
2023-03-04T22:23:14.467Z,101481.47
2023-03-04T22:25:45.078Z,101485.97
2023-03-04T22:28:16.241Z,101489.53
2023-03-04T22:30:49.597Z,101493.22
2023-03-04T22:33:20.470Z,101487.47
2023-03-04T22:35:51.533Z,101499.03
2023-03-04T22:38:22.637Z,101508.25
2023-03-04T22:40:53.288Z,101506.97
2023-03-04T22:43:24.075Z,101500.59
2023-03-04T22:45:55.324Z,101503.28
2023-03-04T22:48:25.911Z,101513.03
2023-03-04T22:50:56.244Z,101509.34
2023-03-04T22:53:26.939Z,101522.78
2023-03-04T22:56:01.152Z,101517.72
2023-03-04T22:58:31.568Z,101522.78
2023-03-04T23:01:03.479Z,101526.47
2023-03-04T23:03:34.116Z,101527.00
2023-03-04T23:06:10.151Z,101539.06
2023-03-04T23:08:45.349Z,101533.84
2023-03-04T23:11:18.256Z,101538.63
2023-03-04T23:13:49.902Z,101536.63
2023-03-04T23:16:22.105Z,101536.63
2023-03-04T23:18:54.241Z,101542.56
2023-03-04T23:21:28.958Z,101545.94
2023-03-04T23:24:01.629Z,101546.19
2023-03-04T23:26:35.980Z,101554.09
2023-03-04T23:29:07.942Z,101556.31
2023-03-04T23:31:39.114Z,101552.63
2023-03-04T23:34:09.670Z,101551.16
2023-03-04T23:36:40.493Z,101556.41
2023-03-04T23:39:12.439Z,101558.78
2023-03-04T23:41:43.357Z,101565.56
2023-03-04T23:44:14.368Z,101567.25
2023-03-04T23:46:45.195Z,101573.13
2023-03-04T23:49:18.003Z,101577.38
2023-03-04T23:51:48.663Z,101578.06
2023-03-04T23:54:20.102Z,101581.47
2023-03-04T23:57:01.927Z,101579.16
2023-03-04T23:59:32.539Z,101577.28
